aviador You're here:

LBPD Decoded Metar

PLOVDIV in BULGARIA
Report Time2017-11-21 05:30:00
UTC Time2017-11-21 06:01:50
Flight Rules vfr VFR
Wind280° at 16 kt
W.Decomp.*RWY 30: 14.7 kt HW 6.3 kt LCW
W.Rank280° ranks 1
Current wind is above 280° avg. (11.4)
Visibility9999 m
Phenomena:N/A
Clouds:N/A
Expected CloudBase > 3,200 ft AGL from Temp-Dew spread
CeilingNone
Temp05°C (ISA -9)
Dew Point-3°C (57% RH)
AAT-3.1°C
QNH1018 hPa
Density Alt-554 ft
Elevation607 ft
Report Wrong Elevation
Raw Report
LBPD 210530Z AUTO 28016KT 9999 NCD 05/M03 Q1018 NOSIG=

Extra information for LBPD:More info

Metar Taf Metar & Taf Last 4 Metars F.Rules Stats Wind Profile Meteogram Temp Stats Airport Information Weather charts Add Link Nearby VenuesMetar ALERT Operation Metar Decoded Social comments